Rechercher aéroport 
image banner adimage banner adimage banner ad
image banner ad

3CA1 - Newport Beach Police

Situé à Newport Beach, United States

ICAO - 3CA1, IATA -

Données fournies par Airmate  

Information générale

Coordonnées: N33°37'23" W117°52'49"
Élévation : 156 feet MSL.
Variation magnétique : 14° East
Voir autres Aéroports à California

Données opérationnelles

Special qualification required
Heure actuelle UTC:
Heure actuelle locale:
METAR: KSNA 262153Z 22008KT 10SM OVC020 24/17 A2994 RMK AO2 SLP138 T02440172
TAF: KSNA 261918Z 2619/2718 22009KT P6SM OVC015 FM270400 24003KT P6SM OVC015
Voir NOTAMs / SUP AIP / TFR affectant cet aéroport [VIEW]
Fréquences de communication: [VIEW]

Pistes:

Coordonnées de l'aéroport

Adresse: Newport Beach United States

Vue satellite de 3CA1